Time;durP1;ratioP1;P1;durP2;ratioP2;P2;SDS_P1;SDS_P2;PMS_P1;PMS_P2;Temp;Humidity;BMP_temperature;BMP_pressure;BME280_temperature;BME280_humidity;BME280_pressure;Samples;Min_cycle;Max_cycle;Signal;HPM_P1;HPM_P2
2022/10/19 00:00:59;;;;;;;8.27;3.15;;;;;;;8.51;100.00;102915.94;5113440;28;20023;-35
2022/10/19 00:03:24;;;;;;;9.45;3.20;;;;;;;8.57;100.00;102908.19;5112054;28;20024;-35
2022/10/19 00:05:49;;;;;;;6.73;3.50;;;;;;;8.63;100.00;102905.66;5113456;28;20031;-35
2022/10/19 00:08:15;;;;;;;9.17;3.03;;;;;;;8.59;100.00;102884.56;5113922;28;20040;-35
2022/10/19 00:10:40;;;;;;;7.77;3.57;;;;;;;8.63;100.00;102891.31;5113268;28;20031;-35
2022/10/19 00:13:06;;;;;;;7.60;3.28;;;;;;;8.58;100.00;102899.09;5114001;28;20031;-35
2022/10/19 00:15:31;;;;;;;7.37;3.10;;;;;;;8.62;100.00;102900.44;5113425;28;20035;-35
2022/10/19 00:17:56;;;;;;;6.80;3.00;;;;;;;8.59;100.00;102881.88;5113230;28;20077;-35
2022/10/19 00:20:22;;;;;;;9.10;3.13;;;;;;;8.52;100.00;102885.25;5112914;28;20063;-35
2022/10/19 00:22:49;;;;;;;9.27;3.27;;;;;;;8.52;100.00;102890.66;5113414;28;20124;-35
2022/10/19 00:25:15;;;;;;;9.20;2.92;;;;;;;8.58;100.00;102893.69;5113301;28;20062;-35
2022/10/19 00:27:40;;;;;;;7.43;2.83;;;;;;;8.60;100.00;102891.69;5113602;28;20367;-35
2022/10/19 00:30:06;;;;;;;7.70;3.20;;;;;;;8.60;100.00;102894.38;5113091;28;20380;-35
2022/10/19 00:32:31;;;;;;;15.07;3.90;;;;;;;8.60;100.00;102889.81;5111786;28;20077;-35
2022/10/19 00:34:56;;;;;;;12.10;3.50;;;;;;;8.56;100.00;102884.94;5112895;28;20023;-35
2022/10/19 00:37:22;;;;;;;8.47;3.07;;;;;;;8.57;100.00;102883.91;5113293;28;20110;-35
2022/10/19 00:39:47;;;;;;;10.73;3.33;;;;;;;8.59;100.00;102881.88;5113353;28;20023;-35
2022/10/19 00:42:12;;;;;;;10.30;2.97;;;;;;;8.58;100.00;102877.50;5113121;28;20440;-35
2022/10/19 00:44:37;;;;;;;8.90;2.93;;;;;;;8.62;100.00;102876.16;5113257;28;20031;-35
2022/10/19 00:47:06;;;;;;;7.20;3.10;;;;;;;8.61;100.00;102871.78;5112962;28;20061;-35
2022/10/19 00:49:41;;;;;;;13.23;3.60;;;;;;;8.61;100.00;102878.03;5112875;28;20027;-35
2022/10/19 00:52:11;;;;;;;12.77;3.50;;;;;;;8.57;100.00;102878.53;5112885;28;20024;-35
2022/10/19 00:54:39;;;;;;;10.80;3.22;;;;;;;8.57;100.00;102882.06;5112820;28;20028;-35
2022/10/19 00:57:05;;;;;;;9.38;3.13;;;;;;;8.59;100.00;102881.88;5113228;28;20503;-35
2022/10/19 00:59:32;;;;;;;11.05;3.22;;;;;;;8.57;100.00;102878.53;5112763;28;20028;-35
2022/10/19 01:01:59;;;;;;;15.73;4.25;;;;;;;8.46;100.00;102875.16;5116624;28;20024;-35
2022/10/19 01:04:26;;;;;;;6.68;2.83;;;;;;;8.56;100.00;102880.38;5116734;28;20091;-35
2022/10/19 01:06:56;;;;;;;10.98;3.17;;;;;;;8.62;100.00;102885.09;5117474;28;20428;-35
2022/10/19 01:09:21;;;;;;;8.10;2.80;;;;;;;8.49;100.00;102869.44;5116521;28;20118;-35
2022/10/19 01:12:02;;;;;;;13.20;3.45;;;;;;;8.55;100.00;102889.50;5116660;28;20106;-35
2022/10/19 01:14:45;;;;;;;10.95;3.80;;;;;;;8.47;100.00;102878.69;5116896;27;20106;-35
2022/10/19 01:17:16;;;;;;;8.05;2.97;;;;;;;8.47;100.00;102876.00;5116988;28;20104;-35
2022/10/19 01:19:50;;;;;;;9.45;3.38;;;;;;;8.40;100.00;102883.06;5116222;28;20549;-35
2022/10/19 01:22:44;;;;;;;10.95;3.13;;;;;;;8.39;100.00;102881.38;5116210;28;20517;-35
2022/10/19 01:25:28;;;;;;;7.60;2.90;;;;;;;8.36;100.00;102876.28;5116174;28;20039;-35
2022/10/19 01:28:09;;;;;;;8.07;3.00;;;;;;;8.33;100.00;102873.91;5116825;28;20031;-35
2022/10/19 01:31:00;;;;;;;9.60;3.00;;;;;;;8.26;100.00;102876.44;5116366;28;20467;-35
2022/10/19 01:33:44;;;;;;;10.88;3.42;;;;;;;8.29;100.00;102876.09;5116321;28;20036;-35
2022/10/19 01:36:29;;;;;;;10.77;3.05;;;;;;;8.28;100.00;102874.41;5115896;28;20126;-35
2022/10/19 01:39:04;;;;;;;11.40;3.55;;;;;;;8.27;100.00;102876.28;5116701;28;20073;-35
2022/10/19 01:42:06;;;;;;;8.75;2.72;;;;;;;8.31;100.00;102879.50;5116773;28;20032;-35
2022/10/19 01:44:46;;;;;;;7.88;3.00;;;;;;;8.09;100.00;102858.53;5116054;28;20027;-35
2022/10/19 01:47:18;;;;;;;6.80;2.60;;;;;;;8.24;100.00;102876.59;5115983;28;20051;-35
2022/10/19 01:49:53;;;;;;;5.55;3.10;;;;;;;8.18;100.00;102871.88;5115985;27;20023;-35
2022/10/19 01:52:21;;;;;;;6.57;2.60;;;;;;;8.17;100.00;102866.66;5116410;28;20384;-35
2022/10/19 01:54:50;;;;;;;8.65;3.10;;;;;;;8.08;100.00;102859.56;5115861;28;20106;-35
2022/10/19 01:57:22;;;;;;;5.78;2.58;;;;;;;8.11;100.00;102870.88;5116814;28;20039;-35
2022/10/19 01:59:49;;;;;;;6.90;2.58;;;;;;;8.07;100.00;102863.28;5115566;28;20468;-35
2022/10/19 02:02:15;;;;;;;;;;;;;;;8.20;100.00;102871.72;5116224;28;20024;-35
2022/10/19 02:04:41;;;;;;;4.97;2.38;;;;;;;8.04;100.00;102863.59;5115442;28;20030;-35
2022/10/19 02:07:08;;;;;;;5.97;2.33;;;;;;;7.92;100.00;102849.59;5115486;28;20055;-35
2022/10/19 02:09:34;;;;;;;7.55;2.60;;;;;;;7.93;100.00;102844.03;5115306;28;20041;-35
2022/10/19 02:12:03;;;;;;;6.40;2.57;;;;;;;7.84;100.00;102844.19;5114593;28;20110;-35
2022/10/19 02:14:33;;;;;;;7.45;3.00;;;;;;;7.90;100.00;102848.91;5115526;28;20069;-35
2022/10/19 02:17:09;;;;;;;5.07;2.83;;;;;;;7.85;100.00;102835.09;5115411;28;20031;-35
2022/10/19 02:19:34;;;;;;;8.25;3.00;;;;;;;7.90;100.00;102838.97;5115933;28;20031;-35
2022/10/19 02:22:00;;;;;;;7.97;3.25;;;;;;;7.79;100.00;102825.81;5114943;28;20053;-35
2022/10/19 02:24:25;;;;;;;6.65;2.60;;;;;;;7.82;100.00;102819.28;5115471;28;20043;-35
2022/10/19 02:26:52;;;;;;;6.80;2.93;;;;;;;7.81;100.00;102826.50;5115483;28;20042;-35
2022/10/19 02:29:18;;;;;;;12.98;2.90;;;;;;;7.72;100.00;102828.34;5115602;28;20043;-35
2022/10/19 02:31:44;;;;;;;10.10;3.05;;;;;;;7.77;100.00;102830.53;5115434;28;20066;-35
2022/10/19 02:34:10;;;;;;;5.15;2.92;;;;;;;7.79;100.00;102819.59;5115368;27;20426;-35
2022/10/19 02:36:35;;;;;;;9.77;3.22;;;;;;;7.73;100.00;102813.00;5114742;27;20024;-35
2022/10/19 02:39:01;;;;;;;5.90;3.00;;;;;;;7.66;100.00;102798.50;5115564;28;20080;-35
2022/10/19 02:41:41;;;;;;;8.75;3.00;;;;;;;7.72;100.00;102808.63;5114979;28;20035;-35
2022/10/19 02:44:28;;;;;;;8.18;2.97;;;;;;;7.67;100.00;102816.38;5114713;28;20032;-35
2022/10/19 02:46:58;;;;;;;;;;;;;;;7.79;100.00;102812.34;5115307;28;20114;-35
2022/10/19 02:49:24;;;;;;;6.30;2.70;;;;;;;7.64;100.00;102814.00;5115542;28;20251;-35
2022/10/19 02:52:04;;;;;;;6.78;3.20;;;;;;;7.66;100.00;102815.53;5114807;28;20027;-35
2022/10/19 02:54:29;;;;;;;5.88;2.80;;;;;;;7.55;100.00;102798.81;5114454;28;20034;-35
2022/10/19 02:56:56;;;;;;;6.17;2.60;;;;;;;7.65;100.00;102821.06;5114453;28;20110;-35
2022/10/19 02:59:21;;;;;;;;;;;;;;;7.72;100.00;102812.19;5115183;28;20073;-35
2022/10/19 03:01:47;;;;;;;8.55;2.97;;;;;;;7.62;100.00;102814.16;5115377;28;20304;-35
2022/10/19 03:04:12;;;;;;;5.15;2.65;;;;;;;7.62;100.00;102822.25;5115110;28;20031;-35
2022/10/19 03:06:38;;;;;;;7.83;3.03;;;;;;;7.56;100.00;102827.41;5114800;28;20028;-35
2022/10/19 03:09:03;;;;;;;8.20;2.97;;;;;;;7.60;100.00;102813.47;5115040;28;20108;-35
2022/10/19 03:11:28;;;;;;;7.88;3.65;;;;;;;7.48;100.00;102804.03;5114198;28;20023;-35
2022/10/19 03:13:54;;;;;;;13.07;3.73;;;;;;;7.47;100.00;102805.88;5114711;28;20034;-35
2022/10/19 03:16:19;;;;;;;7.77;3.50;;;;;;;7.55;100.00;102814.97;5114356;27;20093;-35
2022/10/19 03:18:47;;;;;;;6.33;3.37;;;;;;;7.51;100.00;102809.06;5114338;28;20051;-35
2022/10/19 03:21:12;;;;;;;5.20;3.13;;;;;;;7.51;100.00;102813.59;5114155;28;20062;-35
2022/10/19 03:23:39;;;;;;;7.20;3.28;;;;;;;7.48;100.00;102812.09;5114376;28;20436;-35
2022/10/19 03:26:05;;;;;;;;;;;;;;;7.58;100.00;102809.28;5114701;28;20033;-35
2022/10/19 03:28:31;;;;;;;7.50;3.65;;;;;;;7.45;100.00;102805.19;5114576;28;19966;-35
2022/10/19 03:30:56;;;;;;;8.40;3.63;;;;;;;7.44;100.00;102803.50;5113797;28;20024;-35
2022/10/19 03:33:23;;;;;;;9.03;3.43;;;;;;;7.44;100.00;102819.66;5114054;28;20027;-35
2022/10/19 03:35:48;;;;;;;;;;;;;;;7.55;100.00;102810.44;5113990;28;20026;-35
2022/10/19 03:38:13;;;;;;;5.07;3.00;;;;;;;7.46;100.00;102806.84;5114372;28;19912;-35
2022/10/19 03:40:39;;;;;;;9.03;3.40;;;;;;;7.44;100.00;102800.81;5114336;28;20035;-35
2022/10/19 03:43:04;;;;;;;8.52;3.20;;;;;;;7.45;100.00;102813.25;5114337;28;20030;-35
2022/10/19 03:45:29;;;;;;;7.10;3.60;;;;;;;7.43;100.00;102804.50;5113875;28;20108;-35
2022/10/19 03:47:55;;;;;;;5.30;2.80;;;;;;;7.43;100.00;102804.50;5114150;28;20107;-35
2022/10/19 03:50:20;;;;;;;5.97;3.00;;;;;;;7.37;100.00;102815.94;5113826;28;20051;-35
2022/10/19 03:52:48;;;;;;;6.40;3.40;;;;;;;7.36;100.00;102816.06;5114372;28;20132;-35
2022/10/19 03:55:13;;;;;;;5.93;2.65;;;;;;;7.36;100.00;102822.28;5113290;28;20020;-35
2022/10/19 03:57:39;;;;;;;6.05;2.70;;;;;;;7.31;100.00;102810.31;5113680;28;20032;-35
2022/10/19 04:00:04;;;;;;;5.83;2.80;;;;;;;7.26;100.00;102816.19;5112253;28;20046;-35
2022/10/19 04:02:30;;;;;;;5.78;3.10;;;;;;;7.12;100.00;102804.19;5113249;28;20042;-35
2022/10/19 04:04:55;;;;;;;5.37;3.00;;;;;;;7.20;100.00;102819.53;5113468;28;20023;-35
2022/10/19 04:07:20;;;;;;;8.10;3.20;;;;;;;7.20;100.00;102819.53;5113194;28;20388;-35
2022/10/19 04:09:46;;;;;;;5.17;2.60;;;;;;;7.08;100.00;102820.84;5113424;27;20486;-35
2022/10/19 04:12:11;;;;;;;6.13;2.90;;;;;;;7.05;100.00;102831.91;5113364;28;20028;-35
2022/10/19 04:14:37;;;;;;;5.73;3.10;;;;;;;7.11;100.00;102829.41;5113340;28;20071;-35
2022/10/19 04:17:02;;;;;;;5.60;2.83;;;;;;;7.06;100.00;102820.97;5113428;28;20107;-35
2022/10/19 04:19:28;;;;;;;5.45;3.03;;;;;;;7.06;100.00;102820.97;5113237;28;20382;-35
2022/10/19 04:21:53;;;;;;;7.05;2.92;;;;;;;6.94;100.00;102814.19;5113521;28;20042;-35
2022/10/19 04:24:19;;;;;;;5.63;2.93;;;;;;;6.97;100.00;102811.16;5113774;28;20107;-35
2022/10/19 04:26:47;;;;;;;5.67;2.67;;;;;;;6.89;100.00;102806.59;5113548;28;20110;-35
2022/10/19 04:29:13;;;;;;;7.35;3.22;;;;;;;6.96;100.00;102821.06;5113140;28;20066;-35
2022/10/19 04:31:39;;;;;;;5.47;2.75;;;;;;;6.97;100.00;102814.69;5113142;28;20110;-35
2022/10/19 04:34:05;;;;;;;5.47;2.65;;;;;;;6.76;100.00;102794.56;5113075;28;20040;-35
2022/10/19 04:36:31;;;;;;;6.90;3.13;;;;;;;6.89;100.00;102803.91;5116449;28;20028;-35
2022/10/19 04:38:57;;;;;;;8.40;3.00;;;;;;;6.92;100.00;102810.78;5115760;28;20046;-35
2022/10/19 04:41:22;;;;;;;5.67;2.70;;;;;;;6.88;100.00;102807.59;5116996;28;20130;-35
2022/10/19 04:43:53;;;;;;;4.75;2.30;;;;;;;6.85;100.00;102812.44;5117371;28;20027;-35
2022/10/19 04:46:19;;;;;;;6.05;3.03;;;;;;;6.77;100.00;102799.78;5117861;28;20032;-35
2022/10/19 04:48:47;;;;;;;7.43;2.45;;;;;;;6.77;100.00;102815.91;5117270;28;20463;-35
2022/10/19 04:51:13;;;;;;;6.53;2.90;;;;;;;6.60;100.00;102790.78;5117692;28;20024;-35
2022/10/19 04:53:40;;;;;;;6.35;2.85;;;;;;;6.74;100.00;102804.66;5117122;28;20028;-35
2022/10/19 04:56:08;;;;;;;6.53;2.60;;;;;;;6.63;100.00;102800.34;5116814;28;20059;-35
2022/10/19 04:58:34;;;;;;;4.43;2.50;;;;;;;6.73;100.00;102803.78;5117194;28;20355;-35
2022/10/19 05:01:12;;;;;;;5.55;3.08;;;;;;;6.73;100.00;102817.22;5116994;27;20032;-35
2022/10/19 05:03:38;;;;;;;6.97;3.00;;;;;;;6.68;100.00;102812.31;5117466;28;20028;-35
2022/10/19 05:06:05;;;;;;;5.80;2.55;;;;;;;6.73;100.00;102814.53;5116812;28;20038;-35
2022/10/19 05:08:31;;;;;;;6.68;2.95;;;;;;;6.65;100.00;102801.06;5116062;28;20026;-35
2022/10/19 05:11:08;;;;;;;11.85;3.13;;;;;;;6.81;100.00;102803.00;5116820;28;20027;-35
2022/10/19 05:13:34;;;;;;;5.47;2.63;;;;;;;6.86;100.00;102806.91;5117468;28;20039;-35
2022/10/19 05:16:01;;;;;;;5.65;2.72;;;;;;;6.87;100.00;102805.88;5116632;28;20026;-35
2022/10/19 05:18:26;;;;;;;8.52;2.97;;;;;;;6.90;100.00;102808.28;5116876;28;20020;-35
2022/10/19 05:21:05;;;;;;;5.30;3.00;;;;;;;6.89;100.00;102803.91;5116565;28;20494;-35
2022/10/19 05:23:32;;;;;;;8.32;3.15;;;;;;;6.82;100.00;102800.16;5116839;28;20020;-35
2022/10/19 05:26:03;;;;;;;7.38;3.00;;;;;;;6.85;100.00;102794.47;5116738;28;20031;-35
2022/10/19 05:28:29;;;;;;;7.80;3.25;;;;;;;6.86;100.00;102792.63;5116918;28;20028;-35
2022/10/19 05:30:54;;;;;;;7.22;3.42;;;;;;;6.83;100.00;102793.78;5116677;28;20577;-35
2022/10/19 05:33:20;;;;;;;10.23;3.23;;;;;;;6.77;100.00;102788.19;5116791;28;20383;-35
2022/10/19 05:35:45;;;;;;;6.20;2.97;;;;;;;6.77;100.00;102786.34;5116469;28;20028;-35
2022/10/19 05:38:10;;;;;;;6.30;3.50;;;;;;;6.73;100.00;102787.66;5116293;27;20047;-36
2022/10/19 05:40:35;;;;;;;7.20;3.17;;;;;;;6.70;100.00;102783.44;5116476;28;20023;-35
2022/10/19 05:43:01;;;;;;;6.70;2.90;;;;;;;6.53;100.00;102770.03;5116170;28;20035;-35
2022/10/19 05:45:26;;;;;;;8.43;2.90;;;;;;;6.68;100.00;102789.97;5116568;28;20031;-35
2022/10/19 05:47:52;;;;;;;6.17;3.00;;;;;;;6.62;100.00;102774.47;5115799;28;20042;-35
2022/10/19 05:50:17;;;;;;;5.60;3.17;;;;;;;6.63;100.00;102779.69;5116149;28;20172;-35
2022/10/19 05:52:42;;;;;;;9.50;3.53;;;;;;;6.63;100.00;102786.91;5116019;28;20106;-35
2022/10/19 05:55:08;;;;;;;8.30;3.60;;;;;;;6.60;100.00;102785.41;5115878;28;20072;-35
2022/10/19 05:57:33;;;;;;;5.88;3.30;;;;;;;6.69;100.00;102778.25;5116364;28;20138;-35
2022/10/19 05:59:58;;;;;;;5.37;3.20;;;;;;;6.65;100.00;102776.88;5115824;28;20027;-35
2022/10/19 06:02:24;;;;;;;5.40;3.33;;;;;;;6.47;100.00;102768.84;5115887;28;20027;-35
2022/10/19 06:04:49;;;;;;;5.57;3.47;;;;;;;6.49;100.00;102769.53;5116029;28;20463;-35
2022/10/19 06:07:14;;;;;;;7.57;3.20;;;;;;;6.54;100.00;102782.47;5115899;28;20028;-35
2022/10/19 06:09:40;;;;;;;6.17;2.97;;;;;;;6.41;100.00;102774.84;5115982;28;20027;-35
2022/10/19 06:12:05;;;;;;;7.97;3.20;;;;;;;6.52;100.00;102788.00;5115801;28;20107;-35
2022/10/19 06:14:31;;;;;;;6.77;3.07;;;;;;;6.55;100.00;102786.88;5116046;28;20035;-35
2022/10/19 06:16:56;;;;;;;8.10;3.40;;;;;;;6.55;100.00;102786.88;5116142;28;20023;-35
2022/10/19 06:19:21;;;;;;;6.17;3.20;;;;;;;6.51;100.00;102777.44;5115988;28;20084;-35
2022/10/19 06:21:47;;;;;;;8.87;3.50;;;;;;;6.52;100.00;102779.13;5115803;28;20028;-35
2022/10/19 06:24:12;;;;;;;7.70;3.60;;;;;;;6.51;100.00;102766.69;5115455;28;20023;-35
2022/10/19 06:26:38;;;;;;;8.27;3.47;;;;;;;6.52;100.00;102771.06;5115048;27;20107;-35
2022/10/19 06:29:04;;;;;;;10.13;3.65;;;;;;;6.52;100.00;102765.66;5116104;28;20031;-35
2022/10/19 06:31:33;;;;;;;7.05;3.25;;;;;;;6.58;100.00;102782.00;5115346;28;20024;-35
2022/10/19 06:33:59;;;;;;;6.57;3.53;;;;;;;6.51;100.00;102772.06;5115233;28;20024;-35
2022/10/19 06:36:27;;;;;;;8.57;4.20;;;;;;;6.56;100.00;102769.75;5115136;28;20076;-35
2022/10/19 06:38:53;;;;;;;8.68;3.92;;;;;;;6.56;100.00;102761.69;5115081;28;20038;-35
2022/10/19 06:41:19;;;;;;;9.63;4.68;;;;;;;6.58;100.00;102762.34;5114812;28;20028;-35
2022/10/19 06:43:52;;;;;;;13.52;4.47;;;;;;;6.60;100.00;102766.56;5115133;28;20153;-35
2022/10/19 06:46:20;;;;;;;9.32;4.47;;;;;;;6.57;100.00;102766.88;5115057;28;20024;-35
2022/10/19 06:48:57;;;;;;;8.55;5.47;;;;;;;6.65;100.00;102776.88;5114647;28;20031;-35
2022/10/19 06:51:24;;;;;;;8.43;5.07;;;;;;;6.73;100.00;102782.28;5114897;28;20081;-35
2022/10/19 06:53:49;;;;;;;11.05;4.85;;;;;;;6.77;100.00;102783.66;5114517;28;20543;-35
2022/10/19 06:56:15;;;;;;;8.60;4.90;;;;;;;6.78;100.00;102781.78;5114519;28;20051;-35
2022/10/19 06:58:40;;;;;;;7.00;4.80;;;;;;;6.84;100.00;102787.41;5114478;28;20065;-35
2022/10/19 07:01:07;;;;;;;12.07;5.13;;;;;;;6.87;100.00;102784.38;5115388;28;20034;-35
2022/10/19 07:03:32;;;;;;;8.85;5.00;;;;;;;6.86;100.00;102781.84;5114868;28;20367;-35
2022/10/19 07:06:00;;;;;;;10.95;5.22;;;;;;;6.91;100.00;102787.59;5114575;28;20110;-35
2022/10/19 07:08:27;;;;;;;12.50;6.13;;;;;;;6.96;100.00;102787.97;5114281;28;20032;-35
2022/10/19 07:10:57;;;;;;;7.72;5.72;;;;;;;7.01;100.00;102782.09;5114665;28;20024;-35
2022/10/19 07:13:23;;;;;;;8.50;6.38;;;;;;;6.92;100.00;102765.06;5114502;28;20023;-35
2022/10/19 07:15:48;;;;;;;10.90;6.97;;;;;;;7.04;100.00;102776.41;5114285;28;20077;-35
2022/10/19 07:18:14;;;;;;;9.13;6.45;;;;;;;7.01;100.00;102766.81;5114485;28;20474;-35
2022/10/19 07:20:40;;;;;;;11.98;7.45;;;;;;;7.11;100.00;102774.75;5114300;28;20035;-35
2022/10/19 07:23:06;;;;;;;13.15;7.03;;;;;;;7.26;100.00;102783.91;5114550;28;20063;-35
2022/10/19 07:25:32;;;;;;;;;;;;;;;7.32;100.00;102785.97;5114591;28;20059;-35
2022/10/19 07:27:57;;;;;;;11.00;7.75;;;;;;;7.32;100.00;102777.91;5114486;28;19950;-35
2022/10/19 07:30:23;;;;;;;14.90;8.07;;;;;;;7.44;100.00;102787.34;5113875;28;20108;-35
2022/10/19 07:32:48;;;;;;;12.82;7.13;;;;;;;7.54;100.00;102786.38;5114695;27;20027;-35
2022/10/19 07:35:14;;;;;;;11.53;6.93;;;;;;;7.59;100.00;102781.34;5114272;28;20027;-35
2022/10/19 07:37:39;;;;;;;10.80;6.83;;;;;;;7.68;100.00;102783.03;5113721;28;20020;-35
2022/10/19 07:40:05;;;;;;;11.02;6.75;;;;;;;7.76;100.00;102785.78;5114157;28;20062;-35
2022/10/19 07:42:30;;;;;;;11.98;7.38;;;;;;;7.82;100.00;102785.09;5114385;28;20031;-35
2022/10/19 07:44:56;;;;;;;10.33;7.10;;;;;;;7.89;100.00;102786.09;5113593;28;20035;-35
2022/10/19 07:47:21;;;;;;;11.97;6.93;;;;;;;7.98;100.00;102786.97;5113912;28;20068;-35
2022/10/19 07:49:46;;;;;;;12.53;6.87;;;;;;;8.05;100.00;102779.03;5114350;28;20028;-35
2022/10/19 07:52:12;;;;;;;10.50;6.60;;;;;;;8.10;100.00;102774.00;5113869;28;20070;-35
2022/10/19 07:54:37;;;;;;;10.43;6.77;;;;;;;8.12;100.00;102764.75;5113536;28;20106;-35
2022/10/19 07:57:02;;;;;;;11.53;6.73;;;;;;;8.25;100.00;102765.09;5113807;28;20096;-35
2022/10/19 07:59:28;;;;;;;12.23;7.00;;;;;;;8.32;100.00;102770.66;5113522;28;20440;-35
2022/10/19 08:01:54;;;;;;;11.07;6.70;;;;;;;8.37;100.00;102762.91;5114231;28;20028;-35
2022/10/19 08:04:19;;;;;;;10.13;6.20;;;;;;;8.44;100.00;102761.25;5113567;28;20434;-35
2022/10/19 08:06:45;;;;;;;12.33;6.70;;;;;;;8.54;100.00;102760.19;5113406;28;20023;-35
2022/10/19 08:09:10;;;;;;;7.90;5.60;;;;;;;8.62;100.00;102760.19;5113902;28;20031;-35
2022/10/19 08:11:35;;;;;;;11.47;5.67;;;;;;;8.74;100.00;102758.84;5112667;28;20031;-35
2022/10/19 08:14:02;;;;;;;7.37;5.43;;;;;;;8.81;100.00;102762.50;5114329;28;20035;-35
2022/10/19 08:16:29;;;;;;;;;;;;;;;8.89;100.00;102757.09;5112685;28;20387;-35
2022/10/19 08:19:00;;;;;;;7.35;5.13;;;;;;;8.97;100.00;102765.16;5113736;28;19919;-35
2022/10/19 08:21:26;;;;;;;9.23;6.40;;;;;;;8.98;100.00;102750.69;5113602;28;20363;-35
2022/10/19 08:23:52;;;;;;;9.90;5.45;;;;;;;9.13;100.00;102760.75;5113674;28;20069;-35
2022/10/19 08:26:18;;;;;;;7.37;5.27;;;;;;;9.15;100.00;102753.28;5113116;28;20040;-35
2022/10/19 08:28:43;;;;;;;;;;;;;;;9.29;100.00;102758.81;5114239;28;20618;-35
2022/10/19 08:31:14;;;;;;;12.83;5.80;;;;;;;9.32;100.00;102745.94;5112968;28;19912;-35
2022/10/19 08:33:39;;;;;;;7.55;5.28;;;;;;;9.46;100.00;102756.84;5113403;28;20267;-35
2022/10/19 08:36:06;;;;;;;9.10;5.18;;;;;;;9.57;100.00;102749.38;5113416;28;20032;-35
2022/10/19 08:38:34;;;;;;;10.93;5.25;;;;;;;9.62;100.00;102742.44;5113718;28;20089;-35
2022/10/19 08:41:22;;;;;;;8.40;5.13;;;;;;;9.69;100.00;102735.28;5112904;28;20111;-35
2022/10/19 08:44:18;;;;;;;12.90;5.38;;;;;;;9.77;100.00;102737.09;5112295;28;20388;-35
2022/10/19 08:47:08;;;;;;;8.00;5.00;;;;;;;9.83;100.00;102722.84;5113346;28;20432;-35
2022/10/19 08:49:34;;;;;;;10.20;4.80;;;;;;;9.91;100.00;102717.41;5113381;28;20030;-35
2022/10/19 08:52:09;;;;;;;10.13;5.00;;;;;;;9.98;100.00;102712.94;5113028;28;20023;-35
2022/10/19 08:54:41;;;;;;;10.73;4.53;;;;;;;10.05;100.00;102708.50;5113566;28;20020;-35
2022/10/19 08:57:29;;;;;;;6.97;4.38;;;;;;;10.15;100.00;102708.25;5113184;28;20127;-35
2022/10/19 09:00:18;;;;;;;8.63;4.75;;;;;;;10.27;100.00;102709.50;5113426;28;20085;-35
2022/10/19 09:02:58;;;;;;;6.95;4.10;;;;;;;10.32;100.00;102712.50;5112911;28;20024;-35
2022/10/19 09:05:37;;;;;;;7.43;3.80;;;;;;;10.41;100.00;102710.56;5112993;28;20089;-35
2022/10/19 09:08:03;;;;;;;6.45;3.80;;;;;;;10.40;100.00;102702.66;5112255;28;20039;-35
2022/10/19 09:10:33;;;;;;;9.55;4.20;;;;;;;10.45;100.00;102698.34;5113082;28;20066;-35
2022/10/19 09:13:25;;;;;;;6.97;3.63;;;;;;;10.66;100.00;102704.91;5112559;28;20031;-35
2022/10/19 09:15:51;;;;;;;6.32;3.50;;;;;;;10.74;100.00;102696.69;5108662;28;20040;-35
2022/10/19 09:18:22;;;;;;;9.23;3.22;;;;;;;10.78;100.00;102687.16;5112979;28;20028;-35
2022/10/19 09:20:51;;;;;;;6.70;2.90;;;;;;;10.90;100.00;102693.78;5112796;28;20106;-35
2022/10/19 09:23:27;;;;;;;7.70;2.72;;;;;;;10.95;100.00;102699.47;5117061;28;20024;-35
2022/10/19 09:25:52;;;;;;;4.07;2.33;;;;;;;11.01;100.00;102695.16;5116951;28;20047;-35
2022/10/19 09:28:32;;;;;;;5.93;2.70;;;;;;;11.06;100.00;102690.84;5116179;28;20027;-35
2022/10/19 09:30:57;;;;;;;7.28;2.88;;;;;;;11.18;100.00;102695.81;5116732;28;20404;-35
2022/10/19 09:33:31;;;;;;;7.57;3.00;;;;;;;11.23;100.00;102710.44;5116676;28;20056;-35
2022/10/19 09:35:59;;;;;;;5.38;2.70;;;;;;;11.29;99.33;102703.44;5116008;28;20514;-35
2022/10/19 09:38:27;;;;;;;5.90;2.10;;;;;;;11.34;99.80;102699.13;5116084;28;20061;-35
2022/10/19 09:40:52;;;;;;;5.07;2.38;;;;;;;11.41;99.16;102704.59;5116480;28;20168;-35
2022/10/19 09:43:20;;;;;;;4.93;2.30;;;;;;;11.40;99.80;102693.97;5116815;28;20110;-35
2022/10/19 09:46:10;;;;;;;9.48;2.45;;;;;;;11.55;98.77;102709.13;5116334;28;20039;-35
2022/10/19 09:48:48;;;;;;;6.93;2.83;;;;;;;11.60;98.25;102695.84;5116392;28;20027;-35
2022/10/19 09:51:15;;;;;;;6.18;2.28;;;;;;;11.65;97.06;102697.97;5114181;28;20027;-35
2022/10/19 09:53:50;;;;;;;3.55;1.80;;;;;;;11.67;96.39;102685.09;5094712;28;20188;-35
2022/10/19 09:56:19;;;;;;;6.00;2.20;;;;;;;11.75;97.71;102684.94;5095150;28;20134;-35
2022/10/19 09:58:49;;;;;;;5.10;2.03;;;;;;;11.73;95.91;102661.78;5095565;28;20020;-35
2022/10/19 10:01:42;;;;;;;6.57;1.90;;;;;;;11.85;94.01;102684.66;5095824;28;20413;-35
2022/10/19 10:04:12;;;;;;;6.10;1.95;;;;;;;11.82;93.19;102669.63;5093740;28;20040;-35
2022/10/19 10:06:38;;;;;;;6.72;2.15;;;;;;;11.89;92.96;102671.53;5095698;28;20032;-35
2022/10/19 10:09:04;;;;;;;7.75;1.83;;;;;;;11.90;92.99;102679.47;5095425;28;20468;-35
2022/10/19 10:11:32;;;;;;;7.20;1.80;;;;;;;11.99;93.53;102666.63;5095362;28;20024;-35
2022/10/19 10:14:05;;;;;;;7.97;2.05;;;;;;;12.01;92.28;102654.56;5095934;28;20043;-35
2022/10/19 10:16:34;;;;;;;8.02;2.40;;;;;;;12.11;92.16;102648.81;5095726;28;20024;-35
2022/10/19 10:19:05;;;;;;;8.20;1.65;;;;;;;12.18;91.18;102644.25;5096100;28;20035;-35
2022/10/19 10:21:34;;;;;;;6.47;1.65;;;;;;;12.23;91.04;102641.78;5095332;28;20028;-35
2022/10/19 10:24:04;;;;;;;5.55;1.83;;;;;;;12.26;91.03;102635.13;5095532;28;20387;-35
2022/10/19 10:26:31;;;;;;;7.20;2.03;;;;;;;12.48;90.37;102654.88;5095239;28;20036;-35
2022/10/19 10:28:56;;;;;;;7.15;2.17;;;;;;;12.57;89.81;102657.22;5095098;28;20051;-35
2022/10/19 10:31:26;;;;;;;8.18;2.03;;;;;;;12.60;89.80;102666.84;5095161;28;20028;-36
2022/10/19 10:33:55;;;;;;;7.95;2.08;;;;;;;12.70;89.72;102658.34;5094397;28;20032;-35
2022/10/19 10:36:24;;;;;;;4.30;1.70;;;;;;;12.78;90.17;102655.44;5094565;28;20020;-35
2022/10/19 10:38:52;;;;;;;7.10;1.90;;;;;;;12.77;89.58;102659.22;5095223;28;20054;-35
2022/10/19 10:41:22;;;;;;;8.00;1.98;;;;;;;12.70;87.72;102650.22;5094613;28;20024;-35
2022/10/19 10:43:56;;;;;;;8.65;1.92;;;;;;;12.69;88.25;102656.66;5095595;28;20020;-35
2022/10/19 10:46:25;;;;;;;7.20;1.85;;;;;;;12.60;88.10;102654.13;5094429;28;20112;-35
2022/10/19 10:48:54;;;;;;;6.30;1.90;;;;;;;12.57;88.01;102629.25;5095245;28;20038;-35
2022/10/19 10:51:33;;;;;;;2.85;1.30;;;;;;;12.63;89.15;102637.41;5094705;28;20035;-36
2022/10/19 10:54:24;;;;;;;9.32;2.10;;;;;;;12.74;88.83;102630.59;5095145;28;20028;-35
2022/10/19 10:57:11;;;;;;;6.95;2.47;;;;;;;12.78;86.64;102637.28;5094597;28;20058;-35
2022/10/19 10:59:40;;;;;;;;;;;;;;;12.90;90.09;102634.84;5095587;28;20076;-35
2022/10/19 11:02:40;;;;;;;5.38;1.70;;;;;;;12.97;88.45;102621.28;5094100;28;19919;-35
2022/10/19 11:05:18;;;;;;;5.68;1.60;;;;;;;13.02;88.37;102610.63;5094464;28;20077;-35
2022/10/19 11:07:47;;;;;;;11.77;2.53;;;;;;;13.12;87.37;102603.78;5094621;28;20028;-35
2022/10/19 11:10:27;;;;;;;5.25;1.95;;;;;;;13.06;85.66;102599.16;5094288;28;20020;-35
2022/10/19 11:13:04;;;;;;;6.57;1.77;;;;;;;13.07;84.72;102598.13;5094974;28;20099;-35
2022/10/19 11:15:37;;;;;;;5.20;2.15;;;;;;;13.11;83.98;102596.66;5093854;28;20029;-35
2022/10/19 11:18:02;;;;;;;10.13;2.38;;;;;;;13.29;85.42;102596.13;5094661;28;20530;-35
2022/10/19 11:20:31;;;;;;;7.37;1.80;;;;;;;13.27;84.16;102590.03;5094055;28;20028;-35
2022/10/19 11:23:06;;;;;;;5.45;2.10;;;;;;;13.43;84.52;102588.84;5094332;28;20020;-35
2022/10/19 11:26:16;;;;;;;9.43;2.20;;;;;;;13.53;84.38;102586.53;5094257;28;20032;-35
2022/10/19 11:28:48;;;;;;;6.78;1.95;;;;;;;13.52;82.91;102567.72;5091919;28;20032;-35
2022/10/19 11:31:31;;;;;;;5.05;1.90;;;;;;;13.68;85.27;102571.91;5093687;28;20472;-35
2022/10/19 11:34:21;;;;;;;7.90;2.35;;;;;;;13.82;83.50;102585.28;5094273;28;20043;-35